Time;durP1;ratioP1;P1;durP2;ratioP2;P2;SDS_P1;SDS_P2;PMS_P1;PMS_P2;Temp;Humidity;BMP_temperature;BMP_pressure;BME280_temperature;BME280_humidity;BME280_pressure;Samples;Min_cycle;Max_cycle;Signal;HPM_P1;HPM_P2
2022/03/15 00:00:53;;;;;;;658.57;621.37;;;4.00;99.90;;;;;;5075217;28;20473;-82
2022/03/15 00:03:21;;;;;;;691.30;651.97;;;3.90;99.90;;;;;;5075126;28;20485;-82
2022/03/15 00:05:47;;;;;;;654.80;619.10;;;3.90;99.90;;;;;;5075317;28;20458;-82
2022/03/15 00:08:15;;;;;;;633.57;600.20;;;3.80;99.90;;;;;;5075143;28;20477;-81
2022/03/15 00:10:42;;;;;;;699.93;660.73;;;3.80;99.90;;;;;;5075253;28;20450;-82
2022/03/15 00:13:09;;;;;;;714.07;671.67;;;3.90;99.90;;;;;;5075040;28;20528;-82
2022/03/15 00:15:38;;;;;;;681.83;643.23;;;3.90;99.90;;;;;;5075332;28;20871;-82
2022/03/15 00:18:05;;;;;;;739.43;693.93;;;3.80;99.90;;;;;;5075061;28;20824;-80
2022/03/15 00:20:32;;;;;;;761.43;713.93;;;3.80;99.90;;;;;;5075117;28;20454;-82
2022/03/15 00:23:00;;;;;;;769.03;721.83;;;3.90;99.90;;;;;;5074770;28;20482;-82
2022/03/15 00:25:28;;;;;;;794.03;743.63;;;3.80;99.90;;;;;;5075075;28;20493;-82
2022/03/15 00:27:55;;;;;;;803.83;752.47;;;3.90;99.90;;;;;;5074753;28;20531;-82
2022/03/15 00:30:24;;;;;;;778.63;729.37;;;3.90;99.90;;;;;;5074896;28;20477;-82
2022/03/15 00:32:53;;;;;;;786.50;737.80;;;3.90;99.90;;;;;;5099865;23;20478;-80
2022/03/15 00:35:23;;;;;;;781.10;734.57;;;4.00;99.90;;;;;;5057779;28;20463;-82
2022/03/15 00:37:51;;;;;;;742.20;701.90;;;3.80;99.90;;;;;;5056906;28;20451;-82
2022/03/15 00:40:19;;;;;;;727.27;687.97;;;3.60;99.90;;;;;;5058175;28;20451;-82
2022/03/15 00:42:47;;;;;;;782.57;738.20;;;3.70;99.90;;;;;;5057869;28;21033;-81
2022/03/15 00:45:14;;;;;;;787.40;741.33;;;3.60;99.90;;;;;;5057854;28;20891;-82
2022/03/15 00:47:41;;;;;;;784.80;738.20;;;3.60;99.90;;;;;;5058229;28;20466;-82
2022/03/15 00:50:10;;;;;;;806.23;756.70;;;3.60;99.90;;;;;;5057687;28;20463;-82
2022/03/15 00:52:37;;;;;;;802.67;752.63;;;3.70;99.90;;;;;;5057995;28;20475;-82
2022/03/15 00:55:05;;;;;;;793.37;745.47;;;3.60;99.90;;;;;;5057709;28;20471;-82
2022/03/15 00:57:32;;;;;;;822.97;770.63;;;3.60;99.90;;;;;;5057578;28;20447;-82
2022/03/15 00:59:59;;;;;;;826.27;771.67;;;3.70;99.90;;;;;;5057240;28;20459;-82
2022/03/15 01:02:26;;;;;;;826.00;772.30;;;3.70;99.90;;;;;;5057745;28;20452;-82
2022/03/15 01:04:52;;;;;;;829.67;777.17;;;3.60;99.90;;;;;;5057499;28;21008;-81
2022/03/15 01:07:20;;;;;;;826.20;774.10;;;3.60;99.90;;;;;;5057739;28;20466;-82
2022/03/15 01:09:47;;;;;;;837.40;786.13;;;3.60;99.90;;;;;;5057239;28;20459;-82
2022/03/15 01:12:14;;;;;;;850.03;796.10;;;3.50;99.90;;;;;;5057614;28;20478;-81
2022/03/15 01:14:41;;;;;;;853.70;798.60;;;3.50;99.90;;;;;;5057522;28;20488;-82
2022/03/15 01:17:08;;;;;;;852.00;796.97;;;3.50;99.90;;;;;;5057919;28;20455;-81
2022/03/15 01:19:34;;;;;;;845.80;791.20;;;3.60;99.90;;;;;;5057567;28;20456;-82
2022/03/15 01:22:02;;;;;;;859.77;802.37;;;3.50;99.90;;;;;;5057262;28;20461;-83
2022/03/15 01:24:30;;;;;;;844.70;788.60;;;3.60;99.90;;;;;;5057340;28;20471;-81
2022/03/15 01:26:57;;;;;;;847.50;789.57;;;3.60;99.90;;;;;;5057397;28;20801;-82
2022/03/15 01:29:26;;;;;;;836.87;781.57;;;3.60;99.90;;;;;;5057094;28;20505;-82
2022/03/15 01:31:53;;;;;;;836.13;781.33;;;3.60;99.90;;;;;;5056939;28;20820;-81
2022/03/15 01:34:20;;;;;;;834.53;780.13;;;3.70;99.90;;;;;;5057072;28;20491;-82
2022/03/15 01:36:47;;;;;;;846.97;790.00;;;3.70;99.90;;;;;;5056974;28;20455;-81
2022/03/15 01:39:14;;;;;;;838.10;783.00;;;3.70;99.90;;;;;;5056513;28;20455;-82
2022/03/15 01:41:44;;;;;;;846.97;788.07;;;3.70;99.90;;;;;;5057293;28;20884;-82
2022/03/15 01:44:15;;;;;;;857.47;797.83;;;3.80;99.90;;;;;;5057577;28;20463;-82
2022/03/15 01:46:42;;;;;;;846.30;789.87;;;3.80;99.90;;;;;;5057248;28;20478;-82
2022/03/15 01:49:09;;;;;;;850.40;793.83;;;3.80;99.90;;;;;;5056574;28;20932;-82
2022/03/15 01:51:38;;;;;;;838.07;783.53;;;3.90;99.90;;;;;;5056899;28;20455;-81
2022/03/15 01:54:04;;;;;;;853.73;797.33;;;3.90;99.90;;;;;;5056594;28;20480;-82
2022/03/15 01:56:32;;;;;;;854.60;798.20;;;3.90;99.90;;;;;;5057067;28;20452;-82
2022/03/15 01:59:01;;;;;;;859.10;803.33;;;3.90;99.90;;;;;;5056603;28;20447;-82
2022/03/15 02:01:28;;;;;;;855.53;800.87;;;3.90;99.90;;;;;;5057141;28;20463;-81
2022/03/15 02:03:55;;;;;;;856.50;801.90;;;4.00;99.90;;;;;;5057244;28;20471;-81
2022/03/15 02:06:22;;;;;;;865.33;809.60;;;4.00;99.90;;;;;;5056704;28;20525;-82
2022/03/15 02:08:48;;;;;;;863.97;806.90;;;4.00;99.90;;;;;;5056608;28;20452;-81
2022/03/15 02:11:15;;;;;;;867.53;809.90;;;4.20;99.90;;;;;;5056622;28;20459;-81
2022/03/15 02:13:42;;;;;;;863.70;805.47;;;4.20;99.90;;;;;;5056304;28;20566;-82
2022/03/15 02:16:10;;;;;;;852.63;795.43;;;4.40;99.90;;;;;;5056277;28;20517;-81
2022/03/15 02:18:37;;;;;;;841.13;785.07;;;4.40;99.90;;;;;;5055977;28;20466;-81
2022/03/15 02:21:05;;;;;;;840.47;786.93;;;4.60;99.90;;;;;;5056170;28;20979;-81
2022/03/15 02:23:32;;;;;;;830.53;778.33;;;4.60;99.90;;;;;;5056216;28;20475;-81
2022/03/15 02:25:58;;;;;;;809.10;759.63;;;4.70;99.90;;;;;;5057010;28;20757;-81
2022/03/15 02:28:25;;;;;;;805.80;757.60;;;4.70;99.90;;;;;;5056152;28;20822;-81
2022/03/15 02:30:52;;;;;;;802.07;754.23;;;4.70;99.90;;;;;;5055969;28;20458;-81
2022/03/15 02:33:18;;;;;;;801.80;753.27;;;4.70;99.90;;;;;;5056808;28;20483;-81
2022/03/15 02:35:45;;;;;;;775.77;729.60;;;4.70;99.90;;;;;;5056537;28;20959;-81
2022/03/15 02:38:13;;;;;;;803.57;756.17;;;4.80;99.90;;;;;;5055733;28;20462;-81
2022/03/15 02:40:40;;;;;;;780.40;734.90;;;4.90;99.90;;;;;;5056393;28;20452;-81
2022/03/15 02:43:07;;;;;;;777.57;732.50;;;4.80;99.90;;;;;;5056278;28;21010;-81
2022/03/15 02:45:34;;;;;;;784.90;739.20;;;4.80;99.90;;;;;;5056229;28;20482;-81
2022/03/15 02:48:00;;;;;;;742.57;701.67;;;4.90;99.90;;;;;;5055907;28;20487;-81
2022/03/15 02:50:27;;;;;;;744.00;703.23;;;5.00;99.90;;;;;;5055759;28;20927;-81
2022/03/15 02:52:55;;;;;;;701.80;664.03;;;5.00;99.90;;;;;;5056368;28;20479;-82
2022/03/15 02:55:25;;;;;;;712.97;675.27;;;5.00;99.90;;;;;;5056209;28;20966;-81
2022/03/15 02:57:51;;;;;;;705.13;667.00;;;5.10;99.90;;;;;;5056127;28;20547;-81
2022/03/15 03:00:18;;;;;;;695.33;658.63;;;5.00;99.90;;;;;;5055075;28;20459;-81
2022/03/15 03:02:45;;;;;;;695.37;659.30;;;5.00;99.90;;;;;;5055088;28;20447;-81
2022/03/15 03:05:12;;;;;;;676.00;641.17;;;5.10;99.90;;;;;;5055941;28;20460;-81
2022/03/15 03:07:39;;;;;;;646.60;615.00;;;5.00;99.90;;;;;;5055794;28;20447;-81
2022/03/15 03:10:07;;;;;;;644.30;612.30;;;5.00;99.90;;;;;;5056036;28;20447;-81
2022/03/15 03:12:35;;;;;;;649.00;616.43;;;5.00;99.90;;;;;;5055817;28;20470;-81
2022/03/15 03:15:02;;;;;;;641.83;609.10;;;5.00;99.90;;;;;;5056221;28;20476;-81
2022/03/15 03:17:28;;;;;;;619.33;589.13;;;5.00;99.90;;;;;;5055870;28;20462;-81
2022/03/15 03:19:56;;;;;;;658.20;625.70;;;5.00;99.90;;;;;;5055073;28;20463;-81
2022/03/15 03:22:22;;;;;;;636.20;604.73;;;4.90;99.90;;;;;;5055670;28;20464;-81
2022/03/15 03:24:50;;;;;;;631.87;600.07;;;4.90;99.90;;;;;;5056040;28;20467;-81
2022/03/15 03:27:17;;;;;;;654.37;621.90;;;4.90;99.90;;;;;;5055477;28;20990;-81
2022/03/15 03:29:45;;;;;;;660.60;628.07;;;4.80;99.90;;;;;;5055400;28;20451;-81
2022/03/15 03:32:13;;;;;;;673.40;639.23;;;4.80;99.90;;;;;;5055507;28;20455;-81
2022/03/15 03:34:40;;;;;;;678.93;644.73;;;4.80;99.90;;;;;;5055563;28;20909;-81
2022/03/15 03:37:06;;;;;;;657.27;624.27;;;4.80;99.90;;;;;;5055126;28;20494;-82
2022/03/15 03:39:33;;;;;;;654.83;622.13;;;4.80;99.90;;;;;;5055359;28;20470;-80
2022/03/15 03:42:00;;;;;;;659.07;626.40;;;4.90;99.90;;;;;;5055239;28;20459;-81
2022/03/15 03:44:27;;;;;;;652.37;619.67;;;4.80;99.90;;;;;;5055284;28;20506;-81
2022/03/15 03:46:55;;;;;;;663.23;628.93;;;4.80;99.90;;;;;;5054715;28;20467;-80
2022/03/15 03:49:22;;;;;;;660.87;625.33;;;4.80;99.90;;;;;;5055084;28;20447;-81
2022/03/15 03:51:49;;;;;;;659.00;624.50;;;4.80;99.90;;;;;;5055165;28;20481;-81
2022/03/15 03:54:15;;;;;;;686.37;650.23;;;4.70;99.90;;;;;;5055722;28;20478;-81
2022/03/15 03:56:42;;;;;;;657.20;623.23;;;4.80;99.90;;;;;;5055753;28;20455;-81
2022/03/15 03:59:11;;;;;;;676.43;641.80;;;4.60;99.90;;;;;;5055231;28;20933;-81
2022/03/15 04:01:38;;;;;;;693.17;657.23;;;4.70;99.90;;;;;;5055397;28;20918;-81
2022/03/15 04:04:07;;;;;;;686.00;650.10;;;4.60;99.90;;;;;;5055252;28;20475;-81
2022/03/15 04:06:33;;;;;;;689.13;652.97;;;4.60;99.90;;;;;;5055217;28;20487;-81
2022/03/15 04:09:01;;;;;;;719.27;680.83;;;4.60;99.90;;;;;;5055084;28;20456;-81
2022/03/15 04:11:29;;;;;;;726.63;686.67;;;4.50;99.90;;;;;;5056213;28;20459;-81
2022/03/15 04:13:57;;;;;;;738.57;696.77;;;4.60;99.90;;;;;;5058595;28;20483;-81
2022/03/15 04:16:24;;;;;;;740.77;699.63;;;4.50;99.90;;;;;;5059094;28;20501;-81
2022/03/15 04:18:51;;;;;;;743.70;702.30;;;4.50;99.90;;;;;;5058088;28;20455;-82
2022/03/15 04:21:22;;;;;;;744.70;703.63;;;4.50;99.90;;;;;;5058900;28;20451;-81
2022/03/15 04:23:49;;;;;;;717.17;678.10;;;4.50;99.90;;;;;;5058929;28;20558;-81
2022/03/15 04:26:16;;;;;;;737.33;696.63;;;4.50;99.90;;;;;;5057589;28;20451;-81
2022/03/15 04:28:42;;;;;;;729.03;688.63;;;4.50;99.90;;;;;;5058428;28;20458;-81
2022/03/15 04:31:09;;;;;;;725.60;685.37;;;4.50;99.90;;;;;;5058651;28;20451;-81
2022/03/15 04:33:36;;;;;;;719.67;680.20;;;4.60;99.90;;;;;;5058031;28;20495;-81
2022/03/15 04:36:02;;;;;;;701.77;663.37;;;4.60;99.90;;;;;;5058304;28;20462;-81
2022/03/15 04:38:31;;;;;;;703.10;664.30;;;4.50;99.90;;;;;;5057585;28;20834;-81
2022/03/15 04:40:58;;;;;;;712.27;674.27;;;4.60;99.90;;;;;;5058758;28;20776;-81
2022/03/15 04:43:24;;;;;;;731.57;692.10;;;4.50;99.90;;;;;;5057596;28;20471;-81
2022/03/15 04:45:51;;;;;;;723.60;684.67;;;4.60;99.90;;;;;;5057568;28;20451;-81
2022/03/15 04:48:20;;;;;;;713.43;674.97;;;4.60;99.90;;;;;;5057316;28;20459;-81
2022/03/15 04:50:47;;;;;;;681.07;645.03;;;4.50;99.90;;;;;;5058038;28;20459;-81
2022/03/15 04:53:14;;;;;;;711.20;672.83;;;4.50;99.90;;;;;;5057262;28;20482;-81
2022/03/15 04:55:42;;;;;;;732.73;692.73;;;4.50;99.90;;;;;;5057549;28;20455;-81
2022/03/15 04:58:09;;;;;;;743.73;703.10;;;4.40;99.90;;;;;;5057606;28;20512;-82
2022/03/15 05:00:36;;;;;;;743.47;701.27;;;4.40;99.90;;;;;;5058228;28;20456;-82
2022/03/15 05:03:03;;;;;;;711.70;672.07;;;4.50;99.90;;;;;;5057926;28;20457;-81
2022/03/15 05:05:29;;;;;;;730.30;689.20;;;4.40;99.90;;;;;;5057814;28;20451;-81
2022/03/15 05:07:59;;;;;;;719.00;678.90;;;4.40;99.90;;;;;;5058300;28;20455;-81
2022/03/15 05:13:13;;;;;;;682.23;644.87;;;4.40;99.90;;;;;;5057867;28;20455;-81
2022/03/15 05:15:40;;;;;;;691.43;654.43;;;4.40;99.90;;;;;;5057452;28;20451;-82
2022/03/15 05:18:07;;;;;;;671.53;635.73;;;4.50;99.90;;;;;;5056896;28;20478;-80
2022/03/15 05:20:34;;;;;;;645.60;611.30;;;4.50;99.90;;;;;;5057225;28;20914;-82
2022/03/15 05:23:01;;;;;;;672.17;636.50;;;4.60;99.90;;;;;;5056979;28;20569;-81
2022/03/15 05:25:27;;;;;;;632.93;599.33;;;4.60;99.90;;;;;;5056993;28;20450;-81
2022/03/15 05:27:57;;;;;;;620.33;588.00;;;4.50;99.90;;;;;;5057033;28;20487;-81
2022/03/15 05:30:27;;;;;;;639.27;605.33;;;4.60;99.90;;;;;;5056857;28;20456;-81
2022/03/15 05:32:54;;;;;;;609.33;577.40;;;4.70;99.90;;;;;;5056838;28;20463;-81
2022/03/15 05:35:21;;;;;;;586.97;556.83;;;4.70;99.90;;;;;;5056748;28;21011;-82
2022/03/15 05:37:48;;;;;;;580.93;552.70;;;4.50;99.90;;;;;;5056725;28;20450;-81
2022/03/15 05:40:15;;;;;;;602.20;572.60;;;4.70;99.90;;;;;;5057574;28;21181;-81
2022/03/15 05:42:42;;;;;;;634.30;602.30;;;4.60;99.90;;;;;;5057659;28;20825;-81
2022/03/15 05:45:09;;;;;;;635.70;603.83;;;4.60;99.90;;;;;;5058393;28;20510;-81
2022/03/15 05:47:38;;;;;;;648.97;616.07;;;4.70;99.90;;;;;;5057899;28;20455;-81
2022/03/15 05:50:06;;;;;;;601.70;572.30;;;4.60;99.90;;;;;;5059309;28;20455;-81
2022/03/15 05:52:32;;;;;;;581.60;552.90;;;4.70;99.90;;;;;;5061326;28;20964;-81
2022/03/15 05:54:59;;;;;;;572.27;544.60;;;4.80;99.90;;;;;;5058358;28;20483;-81
2022/03/15 05:57:26;;;;;;;564.00;536.53;;;4.70;99.90;;;;;;5057737;28;20452;-81
2022/03/15 05:59:55;;;;;;;553.40;526.90;;;4.80;99.90;;;;;;5056708;28;20452;-81
2022/03/15 06:02:22;;;;;;;571.50;543.00;;;4.80;99.90;;;;;;5055794;28;20478;-81
2022/03/15 06:04:50;;;;;;;549.27;522.87;;;4.70;99.90;;;;;;5055657;28;20464;-81
2022/03/15 06:07:17;;;;;;;526.67;501.50;;;4.80;99.90;;;;;;5055826;28;20506;-81
2022/03/15 06:09:44;;;;;;;515.67;490.73;;;4.80;99.90;;;;;;5055304;28;20645;-82
2022/03/15 06:12:11;;;;;;;521.37;497.00;;;4.90;99.90;;;;;;5054567;28;20447;-82
2022/03/15 06:14:38;;;;;;;490.10;467.37;;;4.90;99.90;;;;;;5056763;28;20489;-82
2022/03/15 06:17:05;;;;;;;492.87;470.10;;;5.00;99.90;;;;;;5056933;28;20451;-81
2022/03/15 06:19:32;;;;;;;505.40;482.00;;;5.00;99.90;;;;;;5057156;28;20451;-81
2022/03/15 06:22:00;;;;;;;499.07;475.23;;;5.00;99.90;;;;;;5057440;28;20455;-81
2022/03/15 06:24:27;;;;;;;502.37;479.07;;;5.00;99.90;;;;;;5056255;28;20471;-81
2022/03/15 06:26:54;;;;;;;512.03;487.70;;;5.10;99.90;;;;;;5056266;28;20485;-81
2022/03/15 06:29:21;;;;;;;491.70;469.60;;;5.00;99.90;;;;;;5056344;28;20542;-81
2022/03/15 06:31:47;;;;;;;512.50;487.80;;;5.00;99.90;;;;;;5055912;28;20451;-82
2022/03/15 06:34:14;;;;;;;506.63;482.87;;;5.10;99.90;;;;;;5070199;22;20511;-81
2022/03/15 06:36:42;;;;;;;494.53;470.97;;;5.20;99.90;;;;;;5031853;28;20463;-82
2022/03/15 06:39:10;;;;;;;476.03;453.90;;;5.30;99.90;;;;;;5032192;28;20460;-82
2022/03/15 06:41:38;;;;;;;450.03;430.10;;;5.20;99.90;;;;;;5033306;28;20560;-83
2022/03/15 06:44:06;;;;;;;389.47;372.50;;;5.40;99.90;;;;;;5033509;28;20472;-82
2022/03/15 06:46:33;;;;;;;384.20;367.07;;;5.40;99.90;;;;;;5032636;28;20456;-83
2022/03/15 06:48:59;;;;;;;343.37;328.60;;;5.50;99.90;;;;;;5032960;28;20452;-83
2022/03/15 06:51:27;;;;;;;308.90;295.93;;;5.60;99.90;;;;;;5032966;28;20452;-83
2022/03/15 06:53:54;;;;;;;266.47;255.30;;;5.60;99.90;;;;;;5033046;28;20868;-82
2022/03/15 06:56:22;;;;;;;255.70;245.17;;;5.70;99.90;;;;;;5034067;28;20463;-82
2022/03/15 06:58:50;;;;;;;228.13;218.83;;;5.70;99.90;;;;;;5034898;28;20460;-83
2022/03/15 07:01:17;;;;;;;219.17;210.60;;;5.80;99.90;;;;;;5034851;28;20452;-81
2022/03/15 07:03:44;;;;;;;230.40;221.00;;;5.90;99.90;;;;;;5033849;28;20468;-83
2022/03/15 07:06:12;;;;;;;228.83;219.13;;;6.00;99.90;;;;;;5032888;28;20464;-82
2022/03/15 07:08:38;;;;;;;188.60;181.03;;;6.00;99.90;;;;;;5033258;28;20456;-81
2022/03/15 07:11:05;;;;;;;188.43;180.83;;;6.10;99.90;;;;;;5032832;28;20460;-84
2022/03/15 07:13:33;;;;;;;157.50;150.70;;;6.20;99.90;;;;;;5032658;28;21051;-84
2022/03/15 07:16:00;;;;;;;152.97;146.23;;;6.20;99.90;;;;;;5033130;28;21016;-82
2022/03/15 07:18:27;;;;;;;142.77;136.77;;;6.30;99.90;;;;;;5031965;28;20456;-82
2022/03/15 07:20:54;;;;;;;77.33;73.60;;;6.40;99.90;;;;;;5033658;28;20452;-83
2022/03/15 07:23:21;;;;;;;64.23;60.67;;;6.50;99.90;;;;;;5032936;28;20448;-84
2022/03/15 07:25:47;;;;;;;56.40;53.20;;;6.50;99.90;;;;;;5033040;28;20448;-81
2022/03/15 07:28:14;;;;;;;48.70;45.77;;;6.60;99.90;;;;;;5033307;28;20843;-83
2022/03/15 07:30:42;;;;;;;54.93;51.77;;;6.70;99.90;;;;;;5037415;28;20486;-85
2022/03/15 07:33:09;;;;;;;44.27;41.00;;;6.80;99.90;;;;;;5033465;28;20941;-83
2022/03/15 07:35:37;;;;;;;43.37;40.77;;;6.80;99.90;;;;;;5052921;28;20486;-83
2022/03/15 07:38:04;;;;;;;33.60;30.90;;;6.90;99.90;;;;;;5053026;28;20509;-82
2022/03/15 07:40:31;;;;;;;27.37;25.07;;;7.00;99.90;;;;;;5052962;28;20466;-82
2022/03/15 07:42:59;;;;;;;23.47;21.53;;;6.90;99.90;;;;;;5052634;28;20542;-83
2022/03/15 07:45:26;;;;;;;21.33;14.93;;;7.00;99.00;;;;;;5051933;28;20483;-83
2022/03/15 07:47:54;;;;;;;17.27;15.57;;;7.10;98.00;;;;;;5057468;28;20451;-82
2022/03/15 07:50:21;;;;;;;16.80;15.40;;;7.20;97.80;;;;;;5057206;28;20455;-80
2022/03/15 07:52:48;;;;;;;16.90;15.30;;;7.10;97.80;;;;;;5058489;28;20955;-82
2022/03/15 07:55:15;;;;;;;16.70;15.30;;;7.30;97.90;;;;;;5056871;28;20518;-82
2022/03/15 07:57:42;;;;;;;20.30;18.50;;;7.30;97.00;;;;;;5057319;28;20455;-82
2022/03/15 08:00:10;;;;;;;22.53;20.60;;;7.30;97.90;;;;;;5056421;28;20454;-82
2022/03/15 08:02:37;;;;;;;22.37;20.37;;;7.40;98.10;;;;;;5056310;28;20473;-84
2022/03/15 08:05:06;;;;;;;18.83;17.33;;;7.50;97.90;;;;;;5056366;28;20473;-83
2022/03/15 08:07:34;;;;;;;17.17;15.67;;;7.50;97.30;;;;;;5056386;28;20451;-80
2022/03/15 08:10:00;;;;;;;15.57;14.17;;;7.50;97.10;;;;;;5056207;28;20454;-82
2022/03/15 08:12:27;;;;;;;18.37;16.70;;;7.60;97.10;;;;;;5057296;28;20455;-83
2022/03/15 08:14:54;;;;;;;14.43;13.03;;;7.70;97.20;;;;;;5056271;28;20479;-83
2022/03/15 08:17:21;;;;;;;21.87;15.03;;;7.70;96.60;;;;;;5056722;28;20470;-80
2022/03/15 08:19:48;;;;;;;17.87;15.73;;;7.70;96.90;;;;;;5055740;28;20461;-82
2022/03/15 08:22:16;;;;;;;16.53;13.33;;;7.80;97.00;;;;;;5056899;28;20530;-83
2022/03/15 08:24:42;;;;;;;16.90;14.13;;;7.70;96.40;;;;;;5055924;28;20467;-83
2022/03/15 08:27:09;;;;;;;13.37;11.10;;;7.80;95.70;;;;;;5056677;28;20970;-82
2022/03/15 08:29:36;;;;;;;10.43;9.33;;;7.90;95.70;;;;;;5055248;28;20463;-82
2022/03/15 08:32:03;;;;;;;11.73;9.50;;;7.80;94.70;;;;;;5063293;28;20556;-86
2022/03/15 08:34:30;;;;;;;13.03;11.33;;;7.80;95.70;;;;;;5061001;28;20833;-82
2022/03/15 08:36:57;;;;;;;20.50;15.70;;;7.80;96.30;;;;;;5057819;28;20455;-84
2022/03/15 08:39:26;;;;;;;14.53;13.03;;;7.80;97.20;;;;;;5061995;28;20462;-82
2022/03/15 08:41:53;;;;;;;21.90;20.20;;;7.70;97.20;;;;;;5057114;28;20451;-82
2022/03/15 08:44:20;;;;;;;28.00;25.70;;;7.70;97.50;;;;;;5056061;28;20221;-83
2022/03/15 08:46:48;;;;;;;48.90;46.10;;;7.60;98.70;;;;;;5055358;28;20483;-85
2022/03/15 08:49:15;;;;;;;88.37;84.63;;;7.60;99.90;;;;;;5055510;28;20504;-83
2022/03/15 08:51:42;;;;;;;71.73;68.43;;;7.60;99.90;;;;;;5055203;28;20455;-85
2022/03/15 08:54:08;;;;;;;103.33;98.97;;;7.60;99.90;;;;;;5055034;28;20475;-84
2022/03/15 08:56:41;;;;;;;147.30;140.60;;;7.60;99.90;;;;;;5054959;28;21010;-83
2022/03/15 08:59:08;;;;;;;186.43;179.43;;;7.50;99.90;;;;;;5054133;28;20638;-84
2022/03/15 09:01:35;;;;;;;231.87;223.53;;;7.60;99.90;;;;;;5055297;28;20455;-83
2022/03/15 09:04:02;;;;;;;285.27;273.77;;;7.70;99.90;;;;;;5054781;28;20847;-83
2022/03/15 09:06:29;;;;;;;318.30;305.80;;;7.80;99.90;;;;;;5054753;28;20454;-84
2022/03/15 09:08:57;;;;;;;305.57;293.77;;;7.90;99.90;;;;;;5054494;28;20455;-83
2022/03/15 09:11:23;;;;;;;296.10;285.20;;;8.00;99.90;;;;;;5054489;28;20940;-83
2022/03/15 09:13:52;;;;;;;317.60;305.43;;;8.10;99.90;;;;;;5054881;28;20467;-83
2022/03/15 09:16:18;;;;;;;330.17;317.27;;;8.20;99.90;;;;;;5054525;28;20483;-83
2022/03/15 09:18:45;;;;;;;283.27;272.77;;;8.20;99.90;;;;;;5054440;28;20452;-85
2022/03/15 09:21:12;;;;;;;259.93;249.93;;;8.30;99.90;;;;;;5054407;28;20462;-83
2022/03/15 09:23:39;;;;;;;220.07;211.93;;;8.40;99.90;;;;;;5054608;28;20845;-83
2022/03/15 09:26:06;;;;;;;206.10;198.40;;;8.40;99.90;;;;;;5054837;28;20451;-83
2022/03/15 09:28:34;;;;;;;227.93;219.90;;;8.40;99.90;;;;;;5054599;28;20739;-83
2022/03/15 09:31:02;;;;;;;204.80;197.30;;;8.40;99.90;;;;;;5054540;28;20460;-83
2022/03/15 09:33:29;;;;;;;155.27;149.20;;;8.30;99.90;;;;;;5054134;28;20469;-83
2022/03/15 09:35:56;;;;;;;209.57;201.97;;;8.50;99.90;;;;;;5054124;28;20482;-85
2022/03/15 09:38:24;;;;;;;165.40;159.10;;;8.50;99.90;;;;;;5054106;28;20467;-83
2022/03/15 09:40:53;;;;;;;89.37;85.37;;;8.60;99.90;;;;;;5054274;28;20452;-83
2022/03/15 09:43:23;;;;;;;91.53;87.87;;;8.70;99.60;;;;;;5054235;28;20482;-83
2022/03/15 09:45:52;;;;;;;67.53;64.13;;;8.80;99.20;;;;;;5054243;28;20517;-83
2022/03/15 09:48:22;;;;;;;42.03;39.30;;;8.80;99.20;;;;;;5053875;28;20951;-83
2022/03/15 09:50:50;;;;;;;38.97;35.60;;;8.90;98.70;;;;;;5054230;28;20456;-84
2022/03/15 09:53:19;;;;;;;23.53;21.83;;;8.90;98.20;;;;;;5053995;28;20455;-85
2022/03/15 09:55:47;;;;;;;22.37;17.00;;;9.00;97.70;;;;;;5053866;28;20832;-83
2022/03/15 09:58:15;;;;;;;15.50;13.17;;;9.00;97.20;;;;;;5053741;28;20451;-83
2022/03/15 10:00:42;;;;;;;16.00;14.50;;;9.10;96.10;;;;;;5054268;28;20459;-83
2022/03/15 10:03:10;;;;;;;16.87;14.80;;;9.10;96.30;;;;;;5054636;28;20451;-83
2022/03/15 10:05:38;;;;;;;22.20;16.03;;;9.20;96.20;;;;;;5054189;28;20475;-83
2022/03/15 10:08:05;;;;;;;16.37;14.87;;;9.20;96.10;;;;;;5054135;28;20455;-82
2022/03/15 10:10:33;;;;;;;15.20;13.80;;;9.30;95.20;;;;;;5053845;28;20479;-85
2022/03/15 10:12:59;;;;;;;15.17;11.27;;;9.30;94.60;;;;;;5053665;28;20455;-83
2022/03/15 10:15:26;;;;;;;19.83;11.30;;;9.30;94.50;;;;;;5053981;28;20483;-83
2022/03/15 10:17:55;;;;;;;16.70;11.60;;;9.30;95.00;;;;;;5054485;28;20545;-83
2022/03/15 10:20:28;;;;;;;16.37;12.10;;;9.20;94.50;;;;;;5055142;28;20902;-83
2022/03/15 10:23:00;;;;;;;15.90;13.40;;;9.20;94.70;;;;;;5053544;28;20462;-83
2022/03/15 10:25:28;;;;;;;21.27;16.00;;;9.20;95.70;;;;;;5053766;28;20494;-85
2022/03/15 10:27:56;;;;;;;20.10;12.57;;;9.20;95.70;;;;;;5053817;28;20447;-83
2022/03/15 10:30:25;;;;;;;15.23;12.30;;;9.20;94.50;;;;;;5053327;28;20459;-83
2022/03/15 10:32:52;;;;;;;15.33;12.03;;;9.20;94.30;;;;;;5053963;28;20956;-83
2022/03/15 10:35:21;;;;;;;13.77;12.23;;;9.40;95.00;;;;;;5053996;28;20483;-83
2022/03/15 10:37:48;;;;;;;14.90;9.33;;;9.50;93.90;;;;;;5054779;28;20462;-83
2022/03/15 10:40:17;;;;;;;14.87;10.10;;;9.60;93.40;;;;;;5053890;28;20982;-83
2022/03/15 10:42:47;;;;;;;12.40;10.40;;;9.60;91.90;;;;;;5055196;28;20455;-83
2022/03/15 10:45:18;;;;;;;16.70;10.17;;;9.70;92.80;;;;;;5054384;28;20467;-83
2022/03/15 10:47:50;;;;;;;11.47;9.90;;;9.80;92.10;;;;;;5054255;28;20456;-83
2022/03/15 10:50:18;;;;;;;14.40;10.60;;;9.70;92.10;;;;;;5053389;28;20455;-83
2022/03/15 10:52:46;;;;;;;16.60;8.87;;;9.80;91.90;;;;;;5054108;28;20883;-82
2022/03/15 10:55:16;;;;;;;11.50;9.97;;;9.70;91.30;;;;;;5053807;28;20475;-83
2022/03/15 10:57:51;;;;;;;15.80;8.57;;;9.70;92.30;;;;;;5054531;28;20837;-83
2022/03/15 11:00:20;;;;;;;14.33;10.00;;;9.70;92.20;;;;;;5054620;28;20912;-83
2022/03/15 11:02:48;;;;;;;16.10;13.20;;;9.80;92.90;;;;;;5056557;28;20451;-85
2022/03/15 11:05:26;;;;;;;17.37;15.77;;;9.80;93.50;;;;;;5055739;28;20847;-84
2022/03/15 11:07:53;;;;;;;22.10;16.67;;;9.80;94.70;;;;;;5054633;28;20455;-83
2022/03/15 11:10:21;;;;;;;27.73;25.53;;;9.80;93.90;;;;;;5053869;28;20490;-84
2022/03/15 11:12:58;;;;;;;23.27;21.20;;;9.80;95.30;;;;;;5054239;28;20463;-84
2022/03/15 11:15:30;;;;;;;17.33;12.37;;;9.80;94.70;;;;;;5051837;28;21284;-83
2022/03/15 11:18:00;;;;;;;15.83;14.33;;;9.80;93.40;;;;;;5053031;28;20462;-83
2022/03/15 11:20:28;;;;;;;16.13;14.53;;;9.70;93.70;;;;;;5052457;28;20502;-83
2022/03/15 11:23:00;;;;;;;18.00;15.97;;;9.70;93.40;;;;;;5052437;28;20478;-84
2022/03/15 11:25:35;;;;;;;21.90;19.90;;;9.70;94.40;;;;;;5052516;28;20514;-84
2022/03/15 11:28:03;;;;;;;29.97;27.57;;;9.70;94.00;;;;;;5052589;28;20481;-84
2022/03/15 11:30:30;;;;;;;42.40;39.60;;;9.70;95.20;;;;;;5052429;28;20462;-86
2022/03/15 11:32:58;;;;;;;37.60;34.20;;;9.80;94.80;;;;;;5052834;28;20697;-86
2022/03/15 11:35:25;;;;;;;59.57;55.37;;;9.80;95.00;;;;;;5051834;28;20858;-86
2022/03/15 11:37:53;;;;;;;36.00;33.43;;;9.80;95.70;;;;;;5052500;28;20451;-84
2022/03/15 11:40:20;;;;;;;54.03;51.03;;;9.90;95.20;;;;;;5053636;28;20485;-85
2022/03/15 11:42:54;;;;;;;16.23;14.40;;;10.00;94.30;;;;;;5052984;28;20462;-85
2022/03/15 11:45:25;;;;;;;32.70;29.83;;;9.90;93.50;;;;;;5052736;28;20578;-86
2022/03/15 11:48:10;;;;;;;18.33;15.77;;;10.00;93.10;;;;;;5052897;28;20835;-84
2022/03/15 11:50:52;;;;;;;23.70;19.37;;;10.00;93.20;;;;;;5052923;28;20466;-86
2022/03/15 11:53:27;;;;;;;23.37;21.33;;;10.00;93.70;;;;;;5052119;28;20455;-85
2022/03/15 11:56:00;;;;;;;17.80;15.87;;;9.90;94.00;;;;;;5052600;28;20479;-85
2022/03/15 11:58:29;;;;;;;24.23;21.87;;;10.00;94.60;;;;;;5053373;28;20467;-85
2022/03/15 12:01:09;;;;;;;17.43;15.73;;;10.00;93.50;;;;;;5052327;28;20850;-85
2022/03/15 12:03:45;;;;;;;34.07;31.47;;;9.90;94.60;;;;;;5053886;28;21053;-85
2022/03/15 12:06:18;;;;;;;75.00;71.00;;;10.00;95.80;;;;;;5052830;28;20508;-85
2022/03/15 12:08:52;;;;;;;27.17;24.90;;;10.00;95.90;;;;;;5052759;28;20542;-85
2022/03/15 12:11:27;;;;;;;32.80;30.40;;;10.00;94.10;;;;;;5052558;28;20455;-85
2022/03/15 12:14:03;;;;;;;25.23;22.90;;;9.90;94.70;;;;;;5053626;28;20471;-87
2022/03/15 12:16:35;;;;;;;21.03;19.17;;;9.90;94.10;;;;;;5052947;28;20479;-86
2022/03/15 12:19:06;;;;;;;25.10;23.27;;;9.80;94.10;;;;;;5052640;28;20458;-85
2022/03/15 12:21:45;;;;;;;46.90;44.37;;;9.80;94.70;;;;;;5053400;28;20451;-85
2022/03/15 12:24:17;;;;;;;40.50;37.30;;;9.90;95.60;;;;;;5053207;28;20482;-85
2022/03/15 12:26:47;;;;;;;47.40;44.80;;;9.90;95.30;;;;;;5053231;28;20455;-85
2022/03/15 12:29:17;;;;;;;89.23;84.63;;;10.00;94.30;;;;;;5052446;28;20455;-85